sensor_id;sensor_type;location;lat;lon;timestamp;P1;durP1;ratioP1;P2;durP2;ratioP2
16294;SDS011;8255;49.560;8.244;2022-10-16T00:01:23;1.15;;;0.60;;
16294;SDS011;8255;49.560;8.244;2022-10-16T00:03:49;0.80;;;0.80;;
16294;SDS011;8255;49.560;8.244;2022-10-16T00:06:16;0.60;;;0.60;;
16294;SDS011;8255;49.560;8.244;2022-10-16T00:08:43;0.50;;;0.50;;
16294;SDS011;8255;49.560;8.244;2022-10-16T00:11:10;0.40;;;0.40;;
16294;SDS011;8255;49.560;8.244;2022-10-16T00:13:39;0.47;;;0.47;;
16294;SDS011;8255;49.560;8.244;2022-10-16T00:16:06;1.15;;;0.43;;
16294;SDS011;8255;49.560;8.244;2022-10-16T00:18:33;1.65;;;0.60;;
16294;SDS011;8255;49.560;8.244;2022-10-16T00:21:02;0.60;;;0.60;;
16294;SDS011;8255;49.560;8.244;2022-10-16T00:23:29;0.57;;;0.57;;
16294;SDS011;8255;49.560;8.244;2022-10-16T00:25:56;0.57;;;0.57;;
16294;SDS011;8255;49.560;8.244;2022-10-16T00:28:23;0.50;;;0.50;;
16294;SDS011;8255;49.560;8.244;2022-10-16T00:30:50;1.40;;;0.60;;
16294;SDS011;8255;49.560;8.244;2022-10-16T00:33:17;0.50;;;0.50;;
16294;SDS011;8255;49.560;8.244;2022-10-16T00:35:43;0.50;;;0.50;;
16294;SDS011;8255;49.560;8.244;2022-10-16T00:38:09;0.63;;;0.63;;
16294;SDS011;8255;49.560;8.244;2022-10-16T00:40:36;0.90;;;0.50;;
16294;SDS011;8255;49.560;8.244;2022-10-16T00:43:02;1.23;;;0.70;;
16294;SDS011;8255;49.560;8.244;2022-10-16T00:45:28;0.90;;;0.60;;
16294;SDS011;8255;49.560;8.244;2022-10-16T00:47:56;0.50;;;0.50;;
16294;SDS011;8255;49.560;8.244;2022-10-16T00:50:24;0.70;;;0.70;;
16294;SDS011;8255;49.560;8.244;2022-10-16T00:52:52;0.63;;;0.60;;
16294;SDS011;8255;49.560;8.244;2022-10-16T00:55:19;1.25;;;0.73;;
16294;SDS011;8255;49.560;8.244;2022-10-16T00:57:46;0.70;;;0.70;;
16294;SDS011;8255;49.560;8.244;2022-10-16T01:00:14;1.48;;;0.68;;
16294;SDS011;8255;49.560;8.244;2022-10-16T01:02:41;1.25;;;0.70;;
16294;SDS011;8255;49.560;8.244;2022-10-16T01:05:09;1.55;;;0.50;;
16294;SDS011;8255;49.560;8.244;2022-10-16T01:07:36;0.50;;;0.50;;
16294;SDS011;8255;49.560;8.244;2022-10-16T01:10:09;0.65;;;0.65;;
16294;SDS011;8255;49.560;8.244;2022-10-16T01:12:41;0.40;;;0.40;;
16294;SDS011;8255;49.560;8.244;2022-10-16T01:15:10;0.43;;;0.43;;
16294;SDS011;8255;49.560;8.244;2022-10-16T01:17:38;0.77;;;0.75;;
16294;SDS011;8255;49.560;8.244;2022-10-16T01:20:10;0.60;;;0.57;;
16294;SDS011;8255;49.560;8.244;2022-10-16T01:22:38;1.88;;;0.63;;
16294;SDS011;8255;49.560;8.244;2022-10-16T01:25:07;0.52;;;0.50;;
16294;SDS011;8255;49.560;8.244;2022-10-16T01:27:39;1.88;;;0.80;;
16294;SDS011;8255;49.560;8.244;2022-10-16T01:30:07;0.77;;;0.70;;
16294;SDS011;8255;49.560;8.244;2022-10-16T01:32:36;1.38;;;0.70;;
16294;SDS011;8255;49.560;8.244;2022-10-16T01:35:04;1.17;;;0.75;;
16294;SDS011;8255;49.560;8.244;2022-10-16T01:37:33;0.70;;;0.70;;
16294;SDS011;8255;49.560;8.244;2022-10-16T01:40:01;0.70;;;0.68;;
16294;SDS011;8255;49.560;8.244;2022-10-16T01:42:30;0.82;;;0.60;;
16294;SDS011;8255;49.560;8.244;2022-10-16T01:44:59;0.60;;;0.60;;
16294;SDS011;8255;49.560;8.244;2022-10-16T01:47:26;2.72;;;0.60;;
16294;SDS011;8255;49.560;8.244;2022-10-16T01:49:53;0.65;;;0.65;;
16294;SDS011;8255;49.560;8.244;2022-10-16T01:52:20;0.93;;;0.70;;
16294;SDS011;8255;49.560;8.244;2022-10-16T01:54:49;0.75;;;0.70;;
16294;SDS011;8255;49.560;8.244;2022-10-16T01:57:17;0.95;;;0.63;;
16294;SDS011;8255;49.560;8.244;2022-10-16T01:59:48;3.42;;;0.80;;
16294;SDS011;8255;49.560;8.244;2022-10-16T02:02:17;1.85;;;0.82;;
16294;SDS011;8255;49.560;8.244;2022-10-16T02:04:45;0.70;;;0.70;;
16294;SDS011;8255;49.560;8.244;2022-10-16T02:07:12;0.60;;;0.60;;
16294;SDS011;8255;49.560;8.244;2022-10-16T02:09:39;0.60;;;0.60;;
16294;SDS011;8255;49.560;8.244;2022-10-16T02:12:07;0.70;;;0.70;;
16294;SDS011;8255;49.560;8.244;2022-10-16T02:14:37;1.00;;;0.90;;
16294;SDS011;8255;49.560;8.244;2022-10-16T02:17:09;0.75;;;0.73;;
16294;SDS011;8255;49.560;8.244;2022-10-16T02:19:37;1.83;;;0.90;;
16294;SDS011;8255;49.560;8.244;2022-10-16T02:22:03;0.82;;;0.82;;
16294;SDS011;8255;49.560;8.244;2022-10-16T02:24:31;3.05;;;1.05;;
16294;SDS011;8255;49.560;8.244;2022-10-16T02:27:00;1.17;;;1.08;;
16294;SDS011;8255;49.560;8.244;2022-10-16T02:29:30;0.90;;;0.90;;
16294;SDS011;8255;49.560;8.244;2022-10-16T02:31:57;1.85;;;1.10;;
16294;SDS011;8255;49.560;8.244;2022-10-16T02:34:25;0.95;;;0.95;;
16294;SDS011;8255;49.560;8.244;2022-10-16T02:36:53;1.13;;;1.13;;
16294;SDS011;8255;49.560;8.244;2022-10-16T02:39:20;1.33;;;1.25;;
16294;SDS011;8255;49.560;8.244;2022-10-16T02:41:47;1.30;;;1.30;;
16294;SDS011;8255;49.560;8.244;2022-10-16T02:44:13;3.00;;;1.60;;
16294;SDS011;8255;49.560;8.244;2022-10-16T02:46:40;1.67;;;1.58;;
16294;SDS011;8255;49.560;8.244;2022-10-16T02:49:06;2.22;;;2.03;;
16294;SDS011;8255;49.560;8.244;2022-10-16T02:51:32;2.15;;;2.05;;
16294;SDS011;8255;49.560;8.244;2022-10-16T02:54:00;4.63;;;2.40;;
16294;SDS011;8255;49.560;8.244;2022-10-16T02:56:26;2.10;;;2.00;;
16294;SDS011;8255;49.560;8.244;2022-10-16T02:58:52;8.20;;;2.83;;
16294;SDS011;8255;49.560;8.244;2022-10-16T03:01:19;2.60;;;2.40;;
16294;SDS011;8255;49.560;8.244;2022-10-16T03:03:45;2.47;;;2.38;;
16294;SDS011;8255;49.560;8.244;2022-10-16T03:06:11;2.78;;;2.58;;
16294;SDS011;8255;49.560;8.244;2022-10-16T03:08:38;2.88;;;2.72;;
16294;SDS011;8255;49.560;8.244;2022-10-16T03:11:05;6.40;;;2.40;;
16294;SDS011;8255;49.560;8.244;2022-10-16T03:13:32;2.55;;;2.30;;
16294;SDS011;8255;49.560;8.244;2022-10-16T03:15:58;3.08;;;2.80;;
16294;SDS011;8255;49.560;8.244;2022-10-16T03:18:24;4.28;;;2.58;;
16294;SDS011;8255;49.560;8.244;2022-10-16T03:20:51;3.25;;;2.50;;
16294;SDS011;8255;49.560;8.244;2022-10-16T03:23:17;2.60;;;2.40;;
16294;SDS011;8255;49.560;8.244;2022-10-16T03:25:43;2.40;;;2.30;;
16294;SDS011;8255;49.560;8.244;2022-10-16T03:28:11;2.65;;;2.47;;
16294;SDS011;8255;49.560;8.244;2022-10-16T03:30:37;6.45;;;2.63;;
16294;SDS011;8255;49.560;8.244;2022-10-16T03:33:04;4.55;;;2.88;;
16294;SDS011;8255;49.560;8.244;2022-10-16T03:35:31;3.38;;;2.70;;
16294;SDS011;8255;49.560;8.244;2022-10-16T03:37:58;2.88;;;2.67;;
16294;SDS011;8255;49.560;8.244;2022-10-16T03:40:24;3.00;;;2.70;;
16294;SDS011;8255;49.560;8.244;2022-10-16T03:42:50;3.83;;;2.50;;
16294;SDS011;8255;49.560;8.244;2022-10-16T03:45:18;3.10;;;2.53;;
16294;SDS011;8255;49.560;8.244;2022-10-16T03:47:44;2.70;;;2.60;;
16294;SDS011;8255;49.560;8.244;2022-10-16T03:50:11;3.38;;;3.05;;
16294;SDS011;8255;49.560;8.244;2022-10-16T03:52:37;2.47;;;2.38;;
16294;SDS011;8255;49.560;8.244;2022-10-16T03:55:03;3.33;;;2.63;;
16294;SDS011;8255;49.560;8.244;2022-10-16T03:57:30;3.05;;;2.85;;
16294;SDS011;8255;49.560;8.244;2022-10-16T03:59:56;3.33;;;3.00;;
16294;SDS011;8255;49.560;8.244;2022-10-16T04:02:24;5.05;;;3.08;;
16294;SDS011;8255;49.560;8.244;2022-10-16T04:04:50;2.70;;;2.50;;
16294;SDS011;8255;49.560;8.244;2022-10-16T04:07:17;3.92;;;2.50;;
16294;SDS011;8255;49.560;8.244;2022-10-16T04:09:43;2.45;;;2.25;;
16294;SDS011;8255;49.560;8.244;2022-10-16T04:12:10;3.50;;;2.47;;
16294;SDS011;8255;49.560;8.244;2022-10-16T04:14:36;2.97;;;2.67;;
16294;SDS011;8255;49.560;8.244;2022-10-16T04:17:02;2.63;;;2.40;;
16294;SDS011;8255;49.560;8.244;2022-10-16T04:19:30;2.60;;;2.50;;
16294;SDS011;8255;49.560;8.244;2022-10-16T04:21:56;3.83;;;2.70;;
16294;SDS011;8255;49.560;8.244;2022-10-16T04:24:22;3.63;;;3.13;;
16294;SDS011;8255;49.560;8.244;2022-10-16T04:26:49;3.22;;;2.88;;
16294;SDS011;8255;49.560;8.244;2022-10-16T04:29:15;4.13;;;2.58;;
16294;SDS011;8255;49.560;8.244;2022-10-16T04:31:41;2.58;;;2.45;;
16294;SDS011;8255;49.560;8.244;2022-10-16T04:34:08;3.10;;;2.90;;
16294;SDS011;8255;49.560;8.244;2022-10-16T04:36:35;2.85;;;2.38;;
16294;SDS011;8255;49.560;8.244;2022-10-16T04:39:02;2.40;;;2.20;;
16294;SDS011;8255;49.560;8.244;2022-10-16T04:41:28;2.50;;;2.40;;
16294;SDS011;8255;49.560;8.244;2022-10-16T04:43:54;2.70;;;2.60;;
16294;SDS011;8255;49.560;8.244;2022-10-16T04:46:21;2.80;;;2.60;;
16294;SDS011;8255;49.560;8.244;2022-10-16T04:48:47;2.80;;;2.60;;
16294;SDS011;8255;49.560;8.244;2022-10-16T04:51:13;3.10;;;2.80;;
16294;SDS011;8255;49.560;8.244;2022-10-16T04:53:41;3.25;;;2.58;;
16294;SDS011;8255;49.560;8.244;2022-10-16T04:56:07;3.00;;;2.80;;
16294;SDS011;8255;49.560;8.244;2022-10-16T04:58:34;3.00;;;2.90;;
16294;SDS011;8255;49.560;8.244;2022-10-16T05:01:00;5.60;;;2.67;;
16294;SDS011;8255;49.560;8.244;2022-10-16T05:03:26;2.50;;;2.40;;
16294;SDS011;8255;49.560;8.244;2022-10-16T05:05:53;2.88;;;2.70;;
16294;SDS011;8255;49.560;8.244;2022-10-16T05:08:19;3.00;;;2.80;;
16294;SDS011;8255;49.560;8.244;2022-10-16T05:10:47;2.88;;;2.67;;
16294;SDS011;8255;49.560;8.244;2022-10-16T05:13:13;5.20;;;2.88;;
16294;SDS011;8255;49.560;8.244;2022-10-16T05:15:39;3.42;;;2.97;;
16294;SDS011;8255;49.560;8.244;2022-10-16T05:18:06;4.07;;;3.10;;
16294;SDS011;8255;49.560;8.244;2022-10-16T05:20:32;3.53;;;3.22;;
16294;SDS011;8255;49.560;8.244;2022-10-16T05:22:58;3.80;;;3.50;;
16294;SDS011;8255;49.560;8.244;2022-10-16T05:25:25;3.60;;;3.30;;
16294;SDS011;8255;49.560;8.244;2022-10-16T05:27:52;3.88;;;3.38;;
16294;SDS011;8255;49.560;8.244;2022-10-16T05:30:19;3.65;;;3.35;;
16294;SDS011;8255;49.560;8.244;2022-10-16T05:32:46;3.33;;;3.10;;
16294;SDS011;8255;49.560;8.244;2022-10-16T05:35:12;3.38;;;3.00;;
16294;SDS011;8255;49.560;8.244;2022-10-16T05:37:39;3.60;;;3.30;;
16294;SDS011;8255;49.560;8.244;2022-10-16T05:40:05;3.42;;;3.08;;
16294;SDS011;8255;49.560;8.244;2022-10-16T05:42:32;3.47;;;3.15;;
16294;SDS011;8255;49.560;8.244;2022-10-16T05:45:00;3.67;;;3.40;;
16294;SDS011;8255;49.560;8.244;2022-10-16T05:47:26;3.70;;;3.40;;
16294;SDS011;8255;49.560;8.244;2022-10-16T05:49:52;3.40;;;3.20;;
16294;SDS011;8255;49.560;8.244;2022-10-16T05:52:19;3.40;;;3.10;;
16294;SDS011;8255;49.560;8.244;2022-10-16T05:54:45;5.03;;;3.80;;
16294;SDS011;8255;49.560;8.244;2022-10-16T05:57:11;3.40;;;3.17;;
16294;SDS011;8255;49.560;8.244;2022-10-16T05:59:38;3.42;;;3.22;;
16294;SDS011;8255;49.560;8.244;2022-10-16T06:02:05;3.30;;;3.00;;
16294;SDS011;8255;49.560;8.244;2022-10-16T06:04:32;3.55;;;3.30;;
16294;SDS011;8255;49.560;8.244;2022-10-16T06:06:58;3.13;;;2.92;;
16294;SDS011;8255;49.560;8.244;2022-10-16T06:09:26;3.22;;;3.00;;
16294;SDS011;8255;49.560;8.244;2022-10-16T06:11:52;3.28;;;3.08;;
16294;SDS011;8255;49.560;8.244;2022-10-16T06:14:18;4.00;;;2.75;;
16294;SDS011;8255;49.560;8.244;2022-10-16T06:16:45;4.10;;;2.80;;
16294;SDS011;8255;49.560;8.244;2022-10-16T06:19:12;3.33;;;3.13;;
16294;SDS011;8255;49.560;8.244;2022-10-16T06:21:39;3.25;;;2.90;;
16294;SDS011;8255;49.560;8.244;2022-10-16T06:24:05;3.63;;;3.35;;
16294;SDS011;8255;49.560;8.244;2022-10-16T06:26:32;3.63;;;3.35;;
16294;SDS011;8255;49.560;8.244;2022-10-16T06:28:58;3.25;;;3.15;;
16294;SDS011;8255;49.560;8.244;2022-10-16T06:31:25;3.17;;;3.08;;
16294;SDS011;8255;49.560;8.244;2022-10-16T06:33:54;4.93;;;3.05;;
16294;SDS011;8255;49.560;8.244;2022-10-16T06:36:22;5.30;;;3.20;;
16294;SDS011;8255;49.560;8.244;2022-10-16T06:38:49;4.30;;;3.30;;
16294;SDS011;8255;49.560;8.244;2022-10-16T06:41:16;3.67;;;3.42;;
16294;SDS011;8255;49.560;8.244;2022-10-16T06:43:43;3.58;;;3.47;;
16294;SDS011;8255;49.560;8.244;2022-10-16T06:46:11;3.72;;;3.15;;
16294;SDS011;8255;49.560;8.244;2022-10-16T06:48:37;4.78;;;3.25;;
16294;SDS011;8255;49.560;8.244;2022-10-16T06:51:04;3.50;;;3.25;;
16294;SDS011;8255;49.560;8.244;2022-10-16T06:53:33;3.22;;;3.10;;
16294;SDS011;8255;49.560;8.244;2022-10-16T06:56:06;4.43;;;3.30;;
16294;SDS011;8255;49.560;8.244;2022-10-16T06:58:32;3.67;;;3.45;;
16294;SDS011;8255;49.560;8.244;2022-10-16T07:00:59;3.50;;;3.20;;
16294;SDS011;8255;49.560;8.244;2022-10-16T07:03:25;4.22;;;3.65;;
16294;SDS011;8255;49.560;8.244;2022-10-16T07:05:51;4.25;;;3.95;;
16294;SDS011;8255;49.560;8.244;2022-10-16T07:08:17;4.50;;;4.10;;
16294;SDS011;8255;49.560;8.244;2022-10-16T07:10:45;4.80;;;4.50;;
16294;SDS011;8255;49.560;8.244;2022-10-16T07:13:12;4.68;;;4.28;;
16294;SDS011;8255;49.560;8.244;2022-10-16T07:15:39;4.68;;;4.30;;
16294;SDS011;8255;49.560;8.244;2022-10-16T07:18:06;4.57;;;4.22;;
16294;SDS011;8255;49.560;8.244;2022-10-16T07:20:32;6.38;;;4.45;;
16294;SDS011;8255;49.560;8.244;2022-10-16T07:22:58;4.60;;;4.20;;
16294;SDS011;8255;49.560;8.244;2022-10-16T07:25:25;4.53;;;4.22;;
16294;SDS011;8255;49.560;8.244;2022-10-16T07:27:52;4.47;;;4.15;;
16294;SDS011;8255;49.560;8.244;2022-10-16T07:30:21;4.85;;;4.45;;
16294;SDS011;8255;49.560;8.244;2022-10-16T07:32:48;4.15;;;3.95;;
16294;SDS011;8255;49.560;8.244;2022-10-16T07:35:14;4.25;;;3.90;;
16294;SDS011;8255;49.560;8.244;2022-10-16T07:37:43;4.28;;;4.00;;
16294;SDS011;8255;49.560;8.244;2022-10-16T07:40:10;4.15;;;3.80;;
16294;SDS011;8255;49.560;8.244;2022-10-16T07:42:36;3.97;;;3.78;;
16294;SDS011;8255;49.560;8.244;2022-10-16T07:45:05;4.00;;;3.58;;
16294;SDS011;8255;49.560;8.244;2022-10-16T07:47:31;4.47;;;3.50;;
16294;SDS011;8255;49.560;8.244;2022-10-16T07:49:58;5.63;;;3.65;;
16294;SDS011;8255;49.560;8.244;2022-10-16T07:52:24;4.15;;;3.70;;
16294;SDS011;8255;49.560;8.244;2022-10-16T07:54:50;4.75;;;4.35;;
16294;SDS011;8255;49.560;8.244;2022-10-16T07:57:17;4.10;;;3.60;;
16294;SDS011;8255;49.560;8.244;2022-10-16T07:59:44;3.78;;;3.47;;
16294;SDS011;8255;49.560;8.244;2022-10-16T08:02:12;4.00;;;3.35;;
16294;SDS011;8255;49.560;8.244;2022-10-16T08:04:39;3.28;;;3.03;;
16294;SDS011;8255;49.560;8.244;2022-10-16T08:07:06;3.88;;;3.00;;
16294;SDS011;8255;49.560;8.244;2022-10-16T08:09:32;3.25;;;3.05;;
16294;SDS011;8255;49.560;8.244;2022-10-16T08:11:59;4.45;;;3.35;;
16294;SDS011;8255;49.560;8.244;2022-10-16T08:14:25;3.15;;;2.95;;
16294;SDS011;8255;49.560;8.244;2022-10-16T08:16:51;3.60;;;3.40;;
16294;SDS011;8255;49.560;8.244;2022-10-16T08:19:19;3.83;;;3.42;;
16294;SDS011;8255;49.560;8.244;2022-10-16T08:21:46;4.13;;;3.83;;
16294;SDS011;8255;49.560;8.244;2022-10-16T08:24:13;4.47;;;3.28;;
16294;SDS011;8255;49.560;8.244;2022-10-16T08:26:39;3.72;;;3.53;;
16294;SDS011;8255;49.560;8.244;2022-10-16T08:29:06;3.80;;;3.50;;
16294;SDS011;8255;49.560;8.244;2022-10-16T08:31:32;4.05;;;3.80;;
16294;SDS011;8255;49.560;8.244;2022-10-16T08:33:59;3.78;;;3.47;;
16294;SDS011;8255;49.560;8.244;2022-10-16T08:36:29;4.38;;;3.97;;
16294;SDS011;8255;49.560;8.244;2022-10-16T08:38:56;3.78;;;3.47;;
16294;SDS011;8255;49.560;8.244;2022-10-16T08:44:31;3.92;;;3.72;;
16294;SDS011;8255;49.560;8.244;2022-10-16T08:47:02;3.80;;;3.50;;
16294;SDS011;8255;49.560;8.244;2022-10-16T08:49:34;4.70;;;4.30;;
16294;SDS011;8255;49.560;8.244;2022-10-16T08:52:02;5.07;;;4.15;;
16294;SDS011;8255;49.560;8.244;2022-10-16T08:54:29;4.90;;;4.10;;
16294;SDS011;8255;49.560;8.244;2022-10-16T08:57:00;3.72;;;3.53;;
16294;SDS011;8255;49.560;8.244;2022-10-16T08:59:33;5.05;;;3.50;;
16294;SDS011;8255;49.560;8.244;2022-10-16T09:02:00;4.32;;;3.92;;
16294;SDS011;8255;49.560;8.244;2022-10-16T09:07:13;3.83;;;3.63;;
16294;SDS011;8255;49.560;8.244;2022-10-16T09:09:49;4.03;;;3.72;;
16294;SDS011;8255;49.560;8.244;2022-10-16T09:12:21;3.22;;;3.03;;
16294;SDS011;8255;49.560;8.244;2022-10-16T09:14:54;4.03;;;3.22;;
16294;SDS011;8255;49.560;8.244;2022-10-16T09:17:26;3.75;;;3.55;;
16294;SDS011;8255;49.560;8.244;2022-10-16T09:19:56;3.40;;;3.15;;
16294;SDS011;8255;49.560;8.244;2022-10-16T09:22:27;3.80;;;3.10;;
16294;SDS011;8255;49.560;8.244;2022-10-16T09:24:54;3.35;;;3.08;;
16294;SDS011;8255;49.560;8.244;2022-10-16T09:27:21;3.10;;;2.80;;
16294;SDS011;8255;49.560;8.244;2022-10-16T09:29:47;3.95;;;2.40;;
16294;SDS011;8255;49.560;8.244;2022-10-16T09:32:15;4.07;;;3.28;;
16294;SDS011;8255;49.560;8.244;2022-10-16T09:34:43;3.85;;;3.55;;
16294;SDS011;8255;49.560;8.244;2022-10-16T09:37:12;3.67;;;3.40;;
16294;SDS011;8255;49.560;8.244;2022-10-16T09:39:47;3.50;;;3.20;;
16294;SDS011;8255;49.560;8.244;2022-10-16T09:42:14;3.33;;;2.90;;
16294;SDS011;8255;49.560;8.244;2022-10-16T09:44:41;2.97;;;2.78;;
16294;SDS011;8255;49.560;8.244;2022-10-16T09:47:12;3.03;;;2.83;;
16294;SDS011;8255;49.560;8.244;2022-10-16T09:49:39;2.85;;;2.65;;
16294;SDS011;8255;49.560;8.244;2022-10-16T09:52:05;3.92;;;2.58;;
16294;SDS011;8255;49.560;8.244;2022-10-16T09:54:32;3.17;;;2.78;;
16294;SDS011;8255;49.560;8.244;2022-10-16T09:57:06;2.50;;;2.38;;
16294;SDS011;8255;49.560;8.244;2022-10-16T09:59:33;2.50;;;2.40;;
16294;SDS011;8255;49.560;8.244;2022-10-16T10:02:01;2.40;;;2.30;;
16294;SDS011;8255;49.560;8.244;2022-10-16T10:04:36;4.22;;;2.70;;
16294;SDS011;8255;49.560;8.244;2022-10-16T10:07:03;2.78;;;2.67;;
16294;SDS011;8255;49.560;8.244;2022-10-16T10:09:30;2.80;;;2.60;;
16294;SDS011;8255;49.560;8.244;2022-10-16T10:11:58;2.63;;;2.47;;
16294;SDS011;8255;49.560;8.244;2022-10-16T10:14:27;2.50;;;2.40;;
16294;SDS011;8255;49.560;8.244;2022-10-16T10:17:02;2.60;;;2.50;;
16294;SDS011;8255;49.560;8.244;2022-10-16T10:19:29;2.72;;;2.50;;
16294;SDS011;8255;49.560;8.244;2022-10-16T10:21:55;5.60;;;2.50;;
16294;SDS011;8255;49.560;8.244;2022-10-16T10:24:21;3.40;;;2.28;;
16294;SDS011;8255;49.560;8.244;2022-10-16T10:26:49;3.47;;;2.20;;
16294;SDS011;8255;49.560;8.244;2022-10-16T10:32:02;3.38;;;2.92;;
16294;SDS011;8255;49.560;8.244;2022-10-16T10:34:35;2.85;;;2.13;;
16294;SDS011;8255;49.560;8.244;2022-10-16T10:37:07;2.60;;;2.40;;
16294;SDS011;8255;49.560;8.244;2022-10-16T10:39:38;2.45;;;2.00;;
16294;SDS011;8255;49.560;8.244;2022-10-16T10:42:12;2.58;;;2.10;;
16294;SDS011;8255;49.560;8.244;2022-10-16T10:44:50;2.05;;;1.95;;
16294;SDS011;8255;49.560;8.244;2022-10-16T10:47:24;2.40;;;2.20;;
16294;SDS011;8255;49.560;8.244;2022-10-16T10:49:55;2.35;;;2.17;;
16294;SDS011;8255;49.560;8.244;2022-10-16T10:52:33;2.80;;;2.60;;
16294;SDS011;8255;49.560;8.244;2022-10-16T10:55:03;3.35;;;2.63;;
16294;SDS011;8255;49.560;8.244;2022-10-16T10:57:36;2.50;;;2.35;;
16294;SDS011;8255;49.560;8.244;2022-10-16T11:00:10;2.40;;;2.28;;
16294;SDS011;8255;49.560;8.244;2022-10-16T11:02:45;2.47;;;2.28;;
16294;SDS011;8255;49.560;8.244;2022-10-16T11:05:27;4.47;;;2.50;;
16294;SDS011;8255;49.560;8.244;2022-10-16T11:07:56;2.60;;;2.40;;
16294;SDS011;8255;49.560;8.244;2022-10-16T11:10:24;2.47;;;2.38;;
16294;SDS011;8255;49.560;8.244;2022-10-16T11:12:52;3.45;;;2.65;;
16294;SDS011;8255;49.560;8.244;2022-10-16T11:15:21;2.58;;;2.47;;
16294;SDS011;8255;49.560;8.244;2022-10-16T11:17:53;2.50;;;2.25;;
16294;SDS011;8255;49.560;8.244;2022-10-16T11:20:22;2.20;;;2.10;;
16294;SDS011;8255;49.560;8.244;2022-10-16T11:22:50;2.50;;;2.22;;
16294;SDS011;8255;49.560;8.244;2022-10-16T11:25:20;2.38;;;2.28;;
16294;SDS011;8255;49.560;8.244;2022-10-16T11:27:49;3.92;;;2.60;;
16294;SDS011;8255;49.560;8.244;2022-10-16T11:30:17;2.10;;;2.00;;
16294;SDS011;8255;49.560;8.244;2022-10-16T11:32:49;2.50;;;1.98;;
16294;SDS011;8255;49.560;8.244;2022-10-16T11:35:21;2.20;;;2.00;;
16294;SDS011;8255;49.560;8.244;2022-10-16T11:37:50;2.25;;;1.95;;
16294;SDS011;8255;49.560;8.244;2022-10-16T11:40:20;2.97;;;1.90;;
16294;SDS011;8255;49.560;8.244;2022-10-16T11:42:48;2.00;;;1.70;;
16294;SDS011;8255;49.560;8.244;2022-10-16T11:45:20;1.80;;;1.70;;
16294;SDS011;8255;49.560;8.244;2022-10-16T11:47:51;1.77;;;1.67;;
16294;SDS011;8255;49.560;8.244;2022-10-16T11:50:22;1.85;;;1.75;;
16294;SDS011;8255;49.560;8.244;2022-10-16T11:52:52;2.58;;;1.60;;
16294;SDS011;8255;49.560;8.244;2022-10-16T11:55:22;2.00;;;1.90;;
16294;SDS011;8255;49.560;8.244;2022-10-16T11:57:50;2.20;;;1.65;;
16294;SDS011;8255;49.560;8.244;2022-10-16T12:00:20;1.67;;;1.58;;
16294;SDS011;8255;49.560;8.244;2022-10-16T12:02:49;2.10;;;1.90;;
16294;SDS011;8255;49.560;8.244;2022-10-16T12:05:19;2.72;;;1.98;;
16294;SDS011;8255;49.560;8.244;2022-10-16T12:07:50;1.92;;;1.80;;
16294;SDS011;8255;49.560;8.244;2022-10-16T12:10:21;2.30;;;1.90;;
16294;SDS011;8255;49.560;8.244;2022-10-16T12:12:47;2.80;;;1.83;;
16294;SDS011;8255;49.560;8.244;2022-10-16T12:15:22;2.00;;;1.80;;
16294;SDS011;8255;49.560;8.244;2022-10-16T12:17:49;3.42;;;1.70;;
16294;SDS011;8255;49.560;8.244;2022-10-16T12:20:19;2.20;;;1.80;;
16294;SDS011;8255;49.560;8.244;2022-10-16T12:22:47;2.60;;;1.85;;
16294;SDS011;8255;49.560;8.244;2022-10-16T12:25:20;1.92;;;1.73;;
16294;SDS011;8255;49.560;8.244;2022-10-16T12:27:53;1.65;;;1.63;;
16294;SDS011;8255;49.560;8.244;2022-10-16T12:30:20;1.95;;;1.88;;
16294;SDS011;8255;49.560;8.244;2022-10-16T12:32:52;1.88;;;1.77;;
16294;SDS011;8255;49.560;8.244;2022-10-16T12:35:20;1.95;;;1.70;;
16294;SDS011;8255;49.560;8.244;2022-10-16T12:37:47;2.00;;;1.80;;
16294;SDS011;8255;49.560;8.244;2022-10-16T12:40:14;2.10;;;1.70;;
16294;SDS011;8255;49.560;8.244;2022-10-16T12:42:42;2.53;;;1.80;;
16294;SDS011;8255;49.560;8.244;2022-10-16T12:45:25;2.20;;;2.03;;
16294;SDS011;8255;49.560;8.244;2022-10-16T12:47:52;3.80;;;1.90;;
16294;SDS011;8255;49.560;8.244;2022-10-16T12:50:26;2.55;;;1.65;;
16294;SDS011;8255;49.560;8.244;2022-10-16T12:52:53;1.85;;;1.75;;
16294;SDS011;8255;49.560;8.244;2022-10-16T12:55:20;2.30;;;2.15;;
16294;SDS011;8255;49.560;8.244;2022-10-16T12:57:54;3.25;;;2.10;;
16294;SDS011;8255;49.560;8.244;2022-10-16T13:00:24;2.67;;;2.03;;
16294;SDS011;8255;49.560;8.244;2022-10-16T13:03:06;3.15;;;1.80;;
16294;SDS011;8255;49.560;8.244;2022-10-16T13:05:46;4.40;;;1.85;;
16294;SDS011;8255;49.560;8.244;2022-10-16T13:08:24;3.10;;;1.90;;
16294;SDS011;8255;49.560;8.244;2022-10-16T13:10:57;2.25;;;1.90;;
16294;SDS011;8255;49.560;8.244;2022-10-16T13:13:44;2.15;;;2.05;;
16294;SDS011;8255;49.560;8.244;2022-10-16T13:16:16;3.13;;;2.00;;
16294;SDS011;8255;49.560;8.244;2022-10-16T13:18:48;2.42;;;2.05;;
16294;SDS011;8255;49.560;8.244;2022-10-16T13:21:23;2.67;;;2.20;;
16294;SDS011;8255;49.560;8.244;2022-10-16T13:23:51;3.13;;;2.10;;
16294;SDS011;8255;49.560;8.244;2022-10-16T13:26:22;2.13;;;1.98;;
16294;SDS011;8255;49.560;8.244;2022-10-16T13:28:52;2.78;;;2.15;;
16294;SDS011;8255;49.560;8.244;2022-10-16T13:31:18;2.95;;;2.15;;
16294;SDS011;8255;49.560;8.244;2022-10-16T13:33:46;2.17;;;2.08;;
16294;SDS011;8255;49.560;8.244;2022-10-16T13:36:18;3.17;;;2.20;;
16294;SDS011;8255;49.560;8.244;2022-10-16T13:38:45;2.45;;;2.25;;
16294;SDS011;8255;49.560;8.244;2022-10-16T13:41:13;2.97;;;2.20;;
16294;SDS011;8255;49.560;8.244;2022-10-16T13:43:41;2.17;;;2.08;;
16294;SDS011;8255;49.560;8.244;2022-10-16T13:46:12;2.45;;;2.30;;
16294;SDS011;8255;49.560;8.244;2022-10-16T13:48:39;2.53;;;2.30;;
16294;SDS011;8255;49.560;8.244;2022-10-16T13:51:06;6.03;;;2.38;;
16294;SDS011;8255;49.560;8.244;2022-10-16T13:53:37;3.17;;;2.13;;
16294;SDS011;8255;49.560;8.244;2022-10-16T13:56:04;2.38;;;2.17;;
16294;SDS011;8255;49.560;8.244;2022-10-16T13:58:30;2.60;;;2.17;;
16294;SDS011;8255;49.560;8.244;2022-10-16T14:00:57;4.35;;;2.25;;
16294;SDS011;8255;49.560;8.244;2022-10-16T14:03:25;2.80;;;2.50;;
16294;SDS011;8255;49.560;8.244;2022-10-16T14:05:52;2.80;;;2.60;;
16294;SDS011;8255;49.560;8.244;2022-10-16T14:08:20;3.25;;;2.35;;
16294;SDS011;8255;49.560;8.244;2022-10-16T14:10:48;5.22;;;2.38;;
16294;SDS011;8255;49.560;8.244;2022-10-16T14:13:15;3.92;;;2.33;;
16294;SDS011;8255;49.560;8.244;2022-10-16T14:15:45;3.25;;;2.42;;
16294;SDS011;8255;49.560;8.244;2022-10-16T14:18:13;2.60;;;2.40;;
16294;SDS011;8255;49.560;8.244;2022-10-16T14:20:44;5.53;;;2.58;;
16294;SDS011;8255;49.560;8.244;2022-10-16T14:23:19;2.30;;;2.20;;
16294;SDS011;8255;49.560;8.244;2022-10-16T14:25:46;2.60;;;2.40;;
16294;SDS011;8255;49.560;8.244;2022-10-16T14:28:15;4.25;;;2.38;;
16294;SDS011;8255;49.560;8.244;2022-10-16T14:30:48;2.53;;;2.40;;
16294;SDS011;8255;49.560;8.244;2022-10-16T14:33:20;2.38;;;2.20;;
16294;SDS011;8255;49.560;8.244;2022-10-16T14:35:56;2.67;;;2.42;;
16294;SDS011;8255;49.560;8.244;2022-10-16T14:38:25;3.05;;;2.40;;
16294;SDS011;8255;49.560;8.244;2022-10-16T14:40:51;3.03;;;2.63;;
16294;SDS011;8255;49.560;8.244;2022-10-16T14:43:20;3.10;;;2.78;;
16294;SDS011;8255;49.560;8.244;2022-10-16T14:45:49;3.08;;;2.33;;
16294;SDS011;8255;49.560;8.244;2022-10-16T14:48:17;2.38;;;2.28;;
16294;SDS011;8255;49.560;8.244;2022-10-16T14:50:44;3.08;;;2.72;;
16294;SDS011;8255;49.560;8.244;2022-10-16T14:53:13;3.20;;;2.88;;
16294;SDS011;8255;49.560;8.244;2022-10-16T14:55:40;2.70;;;2.30;;
16294;SDS011;8255;49.560;8.244;2022-10-16T14:58:08;3.58;;;2.67;;
16294;SDS011;8255;49.560;8.244;2022-10-16T15:00:35;3.63;;;2.47;;
16294;SDS011;8255;49.560;8.244;2022-10-16T15:03:02;5.05;;;2.50;;
16294;SDS011;8255;49.560;8.244;2022-10-16T15:05:28;3.50;;;2.35;;
16294;SDS011;8255;49.560;8.244;2022-10-16T15:07:54;2.72;;;2.40;;
16294;SDS011;8255;49.560;8.244;2022-10-16T15:10:23;2.30;;;2.20;;
16294;SDS011;8255;49.560;8.244;2022-10-16T15:12:50;2.50;;;2.40;;
16294;SDS011;8255;49.560;8.244;2022-10-16T15:15:28;2.92;;;2.17;;